createdAt,value
2023-01-02T00:02:52.357Z,7.80
2023-01-02T00:06:18.430Z,7.80
2023-01-02T00:09:42.243Z,7.95
2023-01-02T00:13:08.105Z,9.02
2023-01-02T00:16:31.989Z,9.07
2023-01-02T00:19:56.657Z,9.23
2023-01-02T00:23:21.248Z,8.25
2023-01-02T00:26:47.332Z,7.90
2023-01-02T00:33:39.698Z,8.35
2023-01-02T00:37:04.860Z,9.50
2023-01-02T00:40:29.767Z,8.95
2023-01-02T00:43:59.022Z,9.60
2023-01-02T00:47:26.292Z,8.48
2023-01-02T00:50:51.630Z,8.05
2023-01-02T00:54:18.956Z,8.15
2023-01-02T00:57:44.321Z,8.88
2023-01-02T01:01:08.526Z,7.50
2023-01-02T01:04:36.044Z,9.07
2023-01-02T01:08:00.122Z,8.73
2023-01-02T01:11:23.879Z,7.80
2023-01-02T01:14:48.083Z,8.15
2023-01-02T01:18:11.931Z,7.97
2023-01-02T01:21:37.193Z,8.60
2023-01-02T01:25:01.417Z,9.68
2023-01-02T01:28:25.801Z,8.23
2023-01-02T01:31:49.766Z,7.95
2023-01-02T01:35:13.953Z,8.90
2023-01-02T01:38:41.876Z,7.50
2023-01-02T01:42:06.329Z,9.05
2023-01-02T01:45:30.282Z,8.05
2023-01-02T01:49:01.702Z,8.43
2023-01-02T01:52:28.943Z,8.23
2023-01-02T01:55:57.486Z,7.88
2023-01-02T01:59:21.650Z,7.70
2023-01-02T02:02:49.627Z,7.72
2023-01-02T02:06:14.646Z,8.63
2023-01-02T02:09:42.900Z,8.18
2023-01-02T02:13:09.801Z,8.35
2023-01-02T02:16:40.833Z,8.77
2023-01-02T02:20:21.556Z,8.35
2023-01-02T02:24:22.494Z,8.15
2023-01-02T02:28:10.032Z,8.30
2023-01-02T02:31:44.164Z,8.82
2023-01-02T02:35:19.769Z,8.85
2023-01-02T02:38:57.467Z,7.70
2023-01-02T02:42:30.161Z,8.25
2023-01-02T02:46:02.867Z,8.93
2023-01-02T02:49:40.079Z,8.48
2023-01-02T02:53:10.876Z,8.68
2023-01-02T02:56:35.452Z,8.85
2023-01-02T02:59:59.730Z,7.68
2023-01-02T03:03:25.137Z,8.93
2023-01-02T03:07:19.984Z,8.63
2023-01-02T03:10:51.061Z,8.00
2023-01-02T03:14:22.619Z,8.48
2023-01-02T03:18:00.016Z,8.80
2023-01-02T03:21:31.686Z,8.05
2023-01-02T03:24:58.151Z,7.65
2023-01-02T03:28:25.189Z,8.18
2023-01-02T03:31:52.653Z,7.80
2023-01-02T03:35:21.401Z,8.68
2023-01-02T03:38:51.711Z,8.52
2023-01-02T03:42:24.463Z,8.88
2023-01-02T03:45:52.920Z,8.00
2023-01-02T03:49:24.157Z,8.25
2023-01-02T03:52:48.137Z,8.18
2023-01-02T03:56:24.644Z,8.00
2023-01-02T03:59:56.939Z,7.97
2023-01-02T04:03:26.712Z,8.10
2023-01-02T04:06:56.532Z,8.32
2023-01-02T04:10:22.771Z,8.50
2023-01-02T04:13:51.769Z,9.10
2023-01-02T04:17:19.356Z,7.57
2023-01-02T04:20:49.280Z,8.30
2023-01-02T04:24:17.368Z,8.18
2023-01-02T04:27:48.807Z,8.70
2023-01-02T04:31:18.985Z,7.75
2023-01-02T04:34:46.463Z,7.80
2023-01-02T04:38:12.525Z,7.90
2023-01-02T04:41:38.067Z,8.00
2023-01-02T04:45:02.215Z,7.93
2023-01-02T04:48:26.025Z,7.57
2023-01-02T04:51:51.976Z,7.72
2023-01-02T04:55:16.123Z,8.30
2023-01-02T04:58:40.219Z,7.82
2023-01-02T05:02:04.171Z,7.35
2023-01-02T05:05:28.324Z,8.15
2023-01-02T05:08:53.629Z,7.78
2023-01-02T05:12:17.927Z,7.32
2023-01-02T05:15:41.686Z,7.32
2023-01-02T05:19:06.087Z,7.28
2023-01-02T05:22:47.214Z,8.30
2023-01-02T05:26:14.327Z,7.47
2023-01-02T05:29:38.312Z,6.30
2023-01-02T05:33:02.474Z,6.28
2023-01-02T05:36:27.525Z,5.88
2023-01-02T05:39:51.652Z,7.00
2023-01-02T05:43:16.825Z,7.03
2023-01-02T05:46:41.943Z,5.90
2023-01-02T05:50:06.578Z,6.60
2023-01-02T05:53:31.543Z,6.60
2023-01-02T05:56:56.634Z,6.55
2023-01-02T06:00:22.499Z,6.57
2023-01-02T06:03:46.844Z,6.45
2023-01-02T06:07:10.993Z,6.47
2023-01-02T06:10:34.908Z,6.70
2023-01-02T06:13:59.139Z,6.00
2023-01-02T06:17:24.571Z,6.30
2023-01-02T06:20:48.711Z,8.27
2023-01-02T06:24:13.083Z,6.50
2023-01-02T06:27:37.172Z,6.03
2023-01-02T06:31:02.008Z,6.95
2023-01-02T06:34:27.546Z,6.10
2023-01-02T06:37:51.444Z,5.95
2023-01-02T06:41:16.484Z,6.40
2023-01-02T06:44:40.345Z,6.53
2023-01-02T06:48:04.328Z,6.78
2023-01-02T06:51:30.282Z,6.65
2023-01-02T06:54:54.420Z,5.82
2023-01-02T06:58:19.581Z,6.93
2023-01-02T07:01:43.896Z,5.88
2023-01-02T07:05:14.939Z,6.72
2023-01-02T07:08:44.440Z,5.93
2023-01-02T07:12:08.226Z,7.28
2023-01-02T07:15:36.583Z,6.20
2023-01-02T07:19:00.543Z,6.15
2023-01-02T07:22:24.514Z,6.70
2023-01-02T07:25:54.899Z,5.90
2023-01-02T07:29:19.296Z,6.35
2023-01-02T07:32:43.546Z,7.10
2023-01-02T07:36:10.704Z,6.50
2023-01-02T07:39:34.508Z,6.95
2023-01-02T07:42:59.934Z,7.20
2023-01-02T07:46:24.379Z,5.65
2023-01-02T07:49:48.334Z,6.97
2023-01-02T07:53:11.938Z,6.78
2023-01-02T07:56:36.063Z,6.90
2023-01-02T08:00:01.180Z,5.75
2023-01-02T08:03:26.105Z,7.05
2023-01-02T08:06:49.808Z,7.85
2023-01-02T08:10:14.973Z,7.63
2023-01-02T08:13:39.177Z,8.45
2023-01-02T08:17:05.594Z,8.10
2023-01-02T08:20:29.604Z,8.70
2023-01-02T08:23:53.852Z,8.38
2023-01-02T08:27:18.129Z,7.85
2023-01-02T08:30:42.223Z,9.38
2023-01-02T08:34:15.736Z,8.88
2023-01-02T08:37:40.000Z,8.40
2023-01-02T08:41:04.085Z,9.10
2023-01-02T08:44:28.667Z,9.43
2023-01-02T08:47:52.427Z,10.32
2023-01-02T08:51:18.295Z,9.13
2023-01-02T08:54:41.695Z,9.63
2023-01-02T08:58:06.105Z,8.40
2023-01-02T09:01:31.423Z,8.15
2023-01-02T09:08:26.415Z,8.65
2023-01-02T09:11:53.612Z,8.43
2023-01-02T09:15:17.188Z,6.60
2023-01-02T09:18:41.964Z,8.50
2023-01-02T09:22:05.896Z,8.93
2023-01-02T09:25:31.706Z,7.95
2023-01-02T09:28:55.217Z,7.97
2023-01-02T09:32:19.288Z,6.65
2023-01-02T09:35:43.182Z,8.38
2023-01-02T09:39:08.027Z,9.57
2023-01-02T09:42:35.648Z,10.02
2023-01-02T09:46:02.272Z,9.82
2023-01-02T09:49:29.213Z,9.48
2023-01-02T09:52:58.769Z,10.13
2023-01-02T09:56:30.377Z,6.90
2023-01-02T10:00:04.043Z,8.52
2023-01-02T10:03:38.294Z,9.43
2023-01-02T10:07:10.013Z,9.68
2023-01-02T10:10:39.716Z,10.63
2023-01-02T10:14:21.024Z,9.13
2023-01-02T10:17:51.824Z,10.40
2023-01-02T10:21:19.656Z,8.73
2023-01-02T10:24:47.580Z,9.15
2023-01-02T10:28:21.006Z,9.38
2023-01-02T10:31:49.523Z,8.73
2023-01-02T10:35:28.084Z,9.23
2023-01-02T10:38:53.443Z,9.32
2023-01-02T10:42:18.800Z,8.77
2023-01-02T10:45:43.623Z,8.57
2023-01-02T10:49:10.239Z,9.63
2023-01-02T10:52:37.616Z,11.18
2023-01-02T10:56:06.842Z,9.25
2023-01-02T10:59:30.852Z,9.02
2023-01-02T11:02:57.698Z,8.20
2023-01-02T11:06:27.170Z,8.10
2023-01-02T11:10:01.186Z,8.50
2023-01-02T11:13:27.413Z,8.68
2023-01-02T11:16:52.951Z,9.65
2023-01-02T11:20:26.407Z,10.05
2023-01-02T11:23:51.235Z,8.50
2023-01-02T11:27:17.945Z,8.70
2023-01-02T11:30:46.419Z,5.63
2023-01-02T11:34:11.909Z,6.80
2023-01-02T11:37:36.237Z,7.88
2023-01-02T11:41:01.863Z,8.23
2023-01-02T11:44:32.686Z,8.05
2023-01-02T11:48:00.775Z,7.90
2023-01-02T11:51:25.218Z,7.25
2023-01-02T11:54:59.421Z,6.85
2023-01-02T11:58:30.465Z,7.05
2023-01-02T12:02:04.099Z,7.30
2023-01-02T12:05:49.141Z,6.80
2023-01-02T12:09:20.710Z,7.10
2023-01-02T12:12:57.154Z,6.30
2023-01-02T12:16:34.496Z,6.68
2023-01-02T12:20:13.803Z,5.05
2023-01-02T12:23:55.038Z,7.18
2023-01-02T12:27:26.074Z,6.57
2023-01-02T12:30:56.815Z,7.57
2023-01-02T12:34:36.599Z,7.10
2023-01-02T12:38:06.372Z,7.07
2023-01-02T12:42:00.624Z,6.47
2023-01-02T12:45:35.938Z,7.60
2023-01-02T12:49:16.137Z,7.22
2023-01-02T12:52:52.941Z,6.45
2023-01-02T12:56:26.519Z,6.97
2023-01-02T13:00:38.950Z,7.32
2023-01-02T13:04:06.869Z,7.50
2023-01-02T13:07:36.086Z,7.15
2023-01-02T13:11:03.854Z,5.97
2023-01-02T13:14:36.299Z,6.97
2023-01-02T13:18:08.848Z,8.30
2023-01-02T13:21:44.785Z,6.18
2023-01-02T13:25:15.604Z,7.30
2023-01-02T13:28:43.300Z,7.30
2023-01-02T13:32:12.836Z,8.15
2023-01-02T13:35:39.504Z,7.25
2023-01-02T13:39:06.976Z,7.00
2023-01-02T13:42:50.933Z,7.00
2023-01-02T13:46:53.496Z,6.63
2023-01-02T13:50:16.910Z,6.43
2023-01-02T13:53:43.514Z,8.25
2023-01-02T13:57:19.296Z,7.15
2023-01-02T14:00:53.920Z,7.65
2023-01-02T14:04:36.625Z,7.43
2023-01-02T14:08:24.269Z,6.25
2023-01-02T14:11:56.773Z,6.15
2023-01-02T14:15:25.351Z,7.55
2023-01-02T14:19:18.364Z,7.00
2023-01-02T14:22:48.717Z,7.35
2023-01-02T14:26:26.243Z,6.40
2023-01-02T14:29:53.931Z,6.30
2023-01-02T14:33:22.425Z,7.72
2023-01-02T14:36:49.833Z,6.68
2023-01-02T14:40:34.637Z,7.50
2023-01-02T14:44:00.012Z,8.10
2023-01-02T14:47:37.282Z,7.63
2023-01-02T14:51:06.655Z,7.72
2023-01-02T14:54:34.795Z,7.72
2023-01-02T14:58:01.669Z,7.97
2023-01-02T15:01:42.075Z,7.90
2023-01-02T15:05:13.316Z,7.78
2023-01-02T15:08:41.000Z,7.20
2023-01-02T15:12:40.736Z,8.68
2023-01-02T15:16:04.532Z,8.05
2023-01-02T15:19:33.700Z,8.50
2023-01-02T15:22:58.237Z,8.75
2023-01-02T15:26:31.443Z,9.45
2023-01-02T15:29:59.418Z,8.85
2023-01-02T15:33:29.089Z,8.43
2023-01-02T15:36:54.712Z,8.10
2023-01-02T15:40:22.527Z,9.55
2023-01-02T15:44:04.819Z,9.13
2023-01-02T15:47:29.286Z,9.50
2023-01-02T15:50:54.832Z,9.10
2023-01-02T15:54:20.301Z,8.32
2023-01-02T15:57:49.251Z,10.48
2023-01-02T16:01:19.419Z,10.07
2023-01-02T16:04:42.970Z,9.75
2023-01-02T16:08:09.055Z,9.05
2023-01-02T16:11:36.872Z,9.05
2023-01-02T16:15:02.853Z,9.25
2023-01-02T16:18:27.619Z,10.05
2023-01-02T16:21:53.920Z,10.07
2023-01-02T16:25:20.265Z,9.48
2023-01-02T16:28:48.179Z,9.13
2023-01-02T16:32:27.320Z,9.77
2023-01-02T16:36:00.722Z,9.77
2023-01-02T16:39:43.689Z,9.63
2023-01-02T16:43:08.930Z,9.65
2023-01-02T16:46:35.313Z,10.10
2023-01-02T16:49:59.608Z,9.32
2023-01-02T16:53:31.321Z,9.52
2023-01-02T16:56:55.905Z,9.38
2023-01-02T17:00:21.278Z,9.55
2023-01-02T17:03:46.630Z,8.82
2023-01-02T17:07:12.014Z,9.65
2023-01-02T17:10:38.189Z,9.20
2023-01-02T17:14:02.186Z,8.90
2023-01-02T17:17:26.443Z,9.63
2023-01-02T17:20:51.482Z,9.57
2023-01-02T17:24:15.463Z,10.13
2023-01-02T17:27:39.461Z,9.98
2023-01-02T17:31:03.412Z,9.25
2023-01-02T17:34:27.361Z,10.68
2023-01-02T17:37:52.922Z,10.68
2023-01-02T17:41:16.792Z,11.05
2023-01-02T17:44:40.956Z,11.00
2023-01-02T17:48:10.965Z,10.55
2023-01-02T17:51:36.588Z,10.32
2023-01-02T17:55:01.656Z,11.77
2023-01-02T17:58:28.126Z,10.75
2023-01-02T18:01:52.099Z,9.98
2023-01-02T18:05:15.986Z,6.88
2023-01-02T18:08:39.986Z,11.73
2023-01-02T18:12:05.554Z,11.98
2023-01-02T18:15:29.801Z,10.27
2023-01-02T18:18:54.617Z,11.07
2023-01-02T18:22:24.604Z,11.52
2023-01-02T18:25:49.002Z,11.88
2023-01-02T18:29:23.313Z,12.57
2023-01-02T18:32:48.000Z,10.73
2023-01-02T18:36:20.789Z,11.43
2023-01-02T18:39:45.033Z,9.65
2023-01-02T18:43:19.901Z,11.18
2023-01-02T18:47:04.646Z,10.88
2023-01-02T18:50:39.229Z,11.57
2023-01-02T18:54:18.688Z,12.18
2023-01-02T18:57:46.359Z,10.82
2023-01-02T19:01:25.192Z,12.40
2023-01-02T19:04:50.661Z,11.65
2023-01-02T19:08:24.438Z,12.05
2023-01-02T19:12:11.136Z,11.82
2023-01-02T19:15:40.833Z,11.88
2023-01-02T19:19:13.940Z,12.05
2023-01-02T19:22:39.654Z,11.77
2023-01-02T19:26:20.448Z,11.35
2023-01-02T19:29:49.018Z,10.05
2023-01-02T19:33:38.937Z,11.23
2023-01-02T19:37:27.977Z,11.60
2023-01-02T19:40:53.254Z,10.32
2023-01-02T19:44:17.098Z,11.35
2023-01-02T19:47:41.218Z,10.60
2023-01-02T19:51:06.488Z,10.68
2023-01-02T19:54:32.966Z,10.75
2023-01-02T19:57:58.487Z,10.80
2023-01-02T20:01:25.287Z,10.75
2023-01-02T20:04:52.722Z,11.02
2023-01-02T20:08:16.883Z,11.80
2023-01-02T20:12:01.320Z,5.45
2023-01-02T20:15:31.429Z,10.57
2023-01-02T20:18:55.678Z,11.30
2023-01-02T20:22:19.662Z,12.57
2023-01-02T20:25:43.588Z,11.52
2023-01-02T20:29:07.535Z,11.20
2023-01-02T20:32:33.364Z,11.15
2023-01-02T20:35:57.395Z,11.10
2023-01-02T20:39:21.911Z,11.68
2023-01-02T20:42:45.710Z,11.55
2023-01-02T20:46:10.261Z,11.52
2023-01-02T20:49:35.136Z,10.85
2023-01-02T20:52:59.020Z,11.15
2023-01-02T20:56:22.611Z,12.27
2023-01-02T20:59:46.708Z,11.25
2023-01-02T21:03:10.801Z,11.45
2023-01-02T21:06:36.745Z,10.32
2023-01-02T21:10:01.328Z,10.55
2023-01-02T21:13:28.547Z,11.15
2023-01-02T21:16:52.366Z,8.45
2023-01-02T21:20:16.353Z,10.55
2023-01-02T21:23:42.822Z,11.52
2023-01-02T21:27:12.787Z,11.75
2023-01-02T21:30:37.203Z,9.40
2023-01-02T21:34:01.354Z,10.07
2023-01-02T21:37:26.191Z,10.95
2023-01-02T21:40:52.011Z,11.02
2023-01-02T21:44:16.170Z,10.98
2023-01-02T21:47:45.963Z,11.32
2023-01-02T21:51:10.247Z,9.23
2023-01-02T21:54:34.860Z,11.68
2023-01-02T21:58:12.816Z,10.27
2023-01-02T22:01:37.984Z,10.68
2023-01-02T22:05:03.237Z,10.55
2023-01-02T22:08:28.345Z,9.60
2023-01-02T22:11:57.978Z,8.80
2023-01-02T22:15:23.809Z,8.95
2023-01-02T22:18:49.512Z,11.85
2023-01-02T22:22:13.988Z,9.15
2023-01-02T22:25:37.874Z,10.00
2023-01-02T22:29:07.049Z,10.50
2023-01-02T22:32:33.846Z,9.88
2023-01-02T22:35:57.864Z,8.98
2023-01-02T22:39:29.229Z,7.80
2023-01-02T22:43:02.783Z,10.18
2023-01-02T22:46:31.613Z,9.88
2023-01-02T22:49:58.239Z,7.53
2023-01-02T22:53:24.842Z,10.50
2023-01-02T22:56:48.989Z,9.57
2023-01-02T23:00:13.892Z,7.95
2023-01-02T23:03:41.852Z,9.25
2023-01-02T23:07:23.867Z,7.00
2023-01-02T23:10:48.726Z,9.23
2023-01-02T23:14:15.143Z,10.68
2023-01-02T23:17:56.669Z,9.35
2023-01-02T23:21:20.424Z,11.95
2023-01-02T23:24:46.191Z,11.18
2023-01-02T23:28:16.580Z,10.15
2023-01-02T23:31:54.874Z,9.32
2023-01-02T23:35:18.907Z,8.68
2023-01-02T23:38:43.421Z,11.00
2023-01-02T23:42:09.198Z,10.38
2023-01-02T23:45:33.636Z,9.60
2023-01-02T23:48:57.681Z,9.60
2023-01-02T23:52:21.804Z,9.30
2023-01-02T23:55:45.710Z,10.07
2023-01-02T23:59:16.013Z,9.60
